sensor_id;sensor_type;location;lat;lon;timestamp;pressure;altitude;pressure_sealevel;temperature
73894;BMP280;62699;50.534;12.784;2023-01-10T00:02:43;95553.25;;;4.52
73894;BMP280;62699;50.534;12.784;2023-01-10T00:07:44;95560.97;;;4.50
73894;BMP280;62699;50.534;12.784;2023-01-10T00:12:44;95565.13;;;4.51
73894;BMP280;62699;50.534;12.784;2023-01-10T00:18:03;95568.50;;;4.51
73894;BMP280;62699;50.534;12.784;2023-01-10T00:23:04;95570.72;;;4.53
73894;BMP280;62699;50.534;12.784;2023-01-10T00:28:04;95580.84;;;4.49
73894;BMP280;62699;50.534;12.784;2023-01-10T00:33:18;95597.50;;;4.64
73894;BMP280;62699;50.534;12.784;2023-01-10T00:38:19;95595.47;;;4.59
73894;BMP280;62699;50.534;12.784;2023-01-10T00:43:19;95605.75;;;4.66
73894;BMP280;62699;50.534;12.784;2023-01-10T00:48:38;95617.34;;;4.63
73894;BMP280;62699;50.534;12.784;2023-01-10T00:53:38;95637.94;;;4.62
73894;BMP280;62699;50.534;12.784;2023-01-10T00:58:38;95643.09;;;4.66
73894;BMP280;62699;50.534;12.784;2023-01-10T01:03:38;95657.78;;;4.61
73894;BMP280;62699;50.534;12.784;2023-01-10T01:08:39;95666.63;;;4.68
73894;BMP280;62699;50.534;12.784;2023-01-10T01:13:39;95669.00;;;4.66
73894;BMP280;62699;50.534;12.784;2023-01-10T01:18:39;95685.00;;;4.66
73894;BMP280;62699;50.534;12.784;2023-01-10T01:23:40;95699.31;;;4.68
73894;BMP280;62699;50.534;12.784;2023-01-10T01:28:40;95694.00;;;4.68
73894;BMP280;62699;50.534;12.784;2023-01-10T01:33:40;95707.59;;;4.70
73894;BMP280;62699;50.534;12.784;2023-01-10T01:38:40;95723.88;;;4.72
73894;BMP280;62699;50.534;12.784;2023-01-10T01:43:58;95725.53;;;4.70
73894;BMP280;62699;50.534;12.784;2023-01-10T01:48:59;95739.97;;;4.63
73894;BMP280;62699;50.534;12.784;2023-01-10T01:54:03;95743.09;;;4.61
73894;BMP280;62699;50.534;12.784;2023-01-10T01:59:14;95743.75;;;4.56
73894;BMP280;62699;50.534;12.784;2023-01-10T02:04:28;95751.22;;;4.52
73894;BMP280;62699;50.534;12.784;2023-01-10T02:09:40;95768.84;;;4.50
73894;BMP280;62699;50.534;12.784;2023-01-10T02:14:43;95768.13;;;4.49
73894;BMP280;62699;50.534;12.784;2023-01-10T02:19:52;95773.00;;;4.51
73894;BMP280;62699;50.534;12.784;2023-01-10T02:30:37;95776.19;;;4.40
73894;BMP280;62699;50.534;12.784;2023-01-10T02:41:08;95786.97;;;4.31
73894;BMP280;62699;50.534;12.784;2023-01-10T02:46:17;95797.56;;;4.26
73894;BMP280;62699;50.534;12.784;2023-01-10T02:51:26;95804.06;;;4.25
73894;BMP280;62699;50.534;12.784;2023-01-10T02:57:08;95820.34;;;4.27
73894;BMP280;62699;50.534;12.784;2023-01-10T03:02:31;95816.19;;;4.26
73894;BMP280;62699;50.534;12.784;2023-01-10T03:07:39;95827.31;;;4.24
73894;BMP280;62699;50.534;12.784;2023-01-10T03:13:01;95840.72;;;4.30
73894;BMP280;62699;50.534;12.784;2023-01-10T03:18:08;95849.91;;;4.29
73894;BMP280;62699;50.534;12.784;2023-01-10T03:23:10;95853.41;;;4.35
73894;BMP280;62699;50.534;12.784;2023-01-10T03:28:16;95858.75;;;4.35
73894;BMP280;62699;50.534;12.784;2023-01-10T03:33:23;95868.69;;;4.34
73894;BMP280;62699;50.534;12.784;2023-01-10T03:38:29;95893.47;;;4.40
73894;BMP280;62699;50.534;12.784;2023-01-10T03:43:46;95893.66;;;4.37
73894;BMP280;62699;50.534;12.784;2023-01-10T03:49:06;95900.09;;;4.45
73894;BMP280;62699;50.534;12.784;2023-01-10T03:54:08;95920.09;;;4.40
73894;BMP280;62699;50.534;12.784;2023-01-10T03:59:08;95922.31;;;4.42
73894;BMP280;62699;50.534;12.784;2023-01-10T04:04:09;95931.78;;;4.43
73894;BMP280;62699;50.534;12.784;2023-01-10T04:09:10;95940.97;;;4.42
73894;BMP280;62699;50.534;12.784;2023-01-10T04:14:10;95940.69;;;4.40
73894;BMP280;62699;50.534;12.784;2023-01-10T04:19:11;95945.28;;;4.39
73894;BMP280;62699;50.534;12.784;2023-01-10T04:24:11;95957.25;;;4.44
73894;BMP280;62699;50.534;12.784;2023-01-10T04:29:41;95978.56;;;4.44
73894;BMP280;62699;50.534;12.784;2023-01-10T04:34:41;95991.63;;;4.42
73894;BMP280;62699;50.534;12.784;2023-01-10T04:39:41;95992.00;;;4.35
73894;BMP280;62699;50.534;12.784;2023-01-10T04:44:41;96002.13;;;4.21
73894;BMP280;62699;50.534;12.784;2023-01-10T04:49:42;96012.25;;;4.08
73894;BMP280;62699;50.534;12.784;2023-01-10T04:54:42;96021.22;;;3.96
73894;BMP280;62699;50.534;12.784;2023-01-10T04:59:42;96028.34;;;3.90
73894;BMP280;62699;50.534;12.784;2023-01-10T05:04:42;96023.63;;;3.85
73894;BMP280;62699;50.534;12.784;2023-01-10T05:09:42;96040.91;;;3.90
73894;BMP280;62699;50.534;12.784;2023-01-10T05:14:43;96041.38;;;3.88
73894;BMP280;62699;50.534;12.784;2023-01-10T05:19:43;96037.53;;;3.89
73894;BMP280;62699;50.534;12.784;2023-01-10T05:24:43;96047.00;;;3.81
73894;BMP280;62699;50.534;12.784;2023-01-10T05:29:44;96069.19;;;3.87
73894;BMP280;62699;50.534;12.784;2023-01-10T05:34:44;96079.56;;;3.85
73894;BMP280;62699;50.534;12.784;2023-01-10T05:39:44;96079.81;;;3.87
73894;BMP280;62699;50.534;12.784;2023-01-10T05:44:44;96091.97;;;3.79
73894;BMP280;62699;50.534;12.784;2023-01-10T05:49:44;96099.06;;;3.91
73894;BMP280;62699;50.534;12.784;2023-01-10T05:54:45;96112.81;;;3.90
73894;BMP280;62699;50.534;12.784;2023-01-10T05:59:45;96118.88;;;3.90
73894;BMP280;62699;50.534;12.784;2023-01-10T06:04:45;96129.22;;;3.88
73894;BMP280;62699;50.534;12.784;2023-01-10T06:15:26;96157.97;;;3.84
73894;BMP280;62699;50.534;12.784;2023-01-10T06:20:27;96164.16;;;3.81
73894;BMP280;62699;50.534;12.784;2023-01-10T06:25:27;96177.78;;;3.83
73894;BMP280;62699;50.534;12.784;2023-01-10T06:30:28;96186.34;;;3.78
73894;BMP280;62699;50.534;12.784;2023-01-10T06:35:29;96202.31;;;3.78
73894;BMP280;62699;50.534;12.784;2023-01-10T06:40:29;96223.63;;;3.78
73894;BMP280;62699;50.534;12.784;2023-01-10T06:45:30;96223.78;;;3.83
73894;BMP280;62699;50.534;12.784;2023-01-10T06:50:30;96231.03;;;3.83
73894;BMP280;62699;50.534;12.784;2023-01-10T06:55:31;96236.34;;;3.83
73894;BMP280;62699;50.534;12.784;2023-01-10T07:00:31;96256.75;;;3.77
73894;BMP280;62699;50.534;12.784;2023-01-10T07:05:32;96268.31;;;3.83
73894;BMP280;62699;50.534;12.784;2023-01-10T07:10:32;96264.16;;;3.82
73894;BMP280;62699;50.534;12.784;2023-01-10T07:15:33;96275.69;;;3.88
73894;BMP280;62699;50.534;12.784;2023-01-10T07:20:33;96290.63;;;3.95
73894;BMP280;62699;50.534;12.784;2023-01-10T07:25:33;96302.47;;;4.03
73894;BMP280;62699;50.534;12.784;2023-01-10T07:30:33;96309.84;;;3.99
73894;BMP280;62699;50.534;12.784;2023-01-10T07:35:34;96323.34;;;3.95
73894;BMP280;62699;50.534;12.784;2023-01-10T07:40:35;96337.69;;;3.89
73894;BMP280;62699;50.534;12.784;2023-01-10T07:45:35;96350.56;;;3.81
73894;BMP280;62699;50.534;12.784;2023-01-10T07:50:36;96357.50;;;3.78
73894;BMP280;62699;50.534;12.784;2023-01-10T07:55:36;96351.16;;;3.76
73894;BMP280;62699;50.534;12.784;2023-01-10T08:00:39;96374.38;;;3.75
73894;BMP280;62699;50.534;12.784;2023-01-10T08:05:39;96380.13;;;3.74
73894;BMP280;62699;50.534;12.784;2023-01-10T08:10:39;96382.50;;;3.72
73894;BMP280;62699;50.534;12.784;2023-01-10T08:15:39;96395.94;;;3.77
73894;BMP280;62699;50.534;12.784;2023-01-10T08:20:40;96394.50;;;3.86
73894;BMP280;62699;50.534;12.784;2023-01-10T08:25:40;96410.63;;;3.91
73894;BMP280;62699;50.534;12.784;2023-01-10T08:30:41;96420.41;;;4.03
73894;BMP280;62699;50.534;12.784;2023-01-10T08:35:42;96430.34;;;4.12
73894;BMP280;62699;50.534;12.784;2023-01-10T08:40:42;96426.94;;;4.11
73894;BMP280;62699;50.534;12.784;2023-01-10T08:45:43;96439.50;;;4.20
73894;BMP280;62699;50.534;12.784;2023-01-10T08:50:43;96453.00;;;4.26
73894;BMP280;62699;50.534;12.784;2023-01-10T08:55:43;96459.06;;;4.26
73894;BMP280;62699;50.534;12.784;2023-01-10T09:00:43;96470.31;;;4.21
73894;BMP280;62699;50.534;12.784;2023-01-10T09:05:44;96468.09;;;4.29
73894;BMP280;62699;50.534;12.784;2023-01-10T09:10:44;96476.38;;;4.21
73894;BMP280;62699;50.534;12.784;2023-01-10T09:15:44;96482.00;;;4.23
73894;BMP280;62699;50.534;12.784;2023-01-10T09:20:45;96490.31;;;4.26
73894;BMP280;62699;50.534;12.784;2023-01-10T09:25:46;96506.13;;;4.29
73894;BMP280;62699;50.534;12.784;2023-01-10T09:30:47;96508.38;;;4.31
73894;BMP280;62699;50.534;12.784;2023-01-10T09:35:47;96519.03;;;4.31
73894;BMP280;62699;50.534;12.784;2023-01-10T09:51:31;96544.50;;;4.41
73894;BMP280;62699;50.534;12.784;2023-01-10T09:56:33;96546.28;;;4.44
73894;BMP280;62699;50.534;12.784;2023-01-10T10:01:34;96540.97;;;4.44
73894;BMP280;62699;50.534;12.784;2023-01-10T10:06:37;96526.75;;;4.56
73894;BMP280;62699;50.534;12.784;2023-01-10T10:11:51;96531.50;;;4.52
73894;BMP280;62699;50.534;12.784;2023-01-10T10:17:21;96537.00;;;4.67
73894;BMP280;62699;50.534;12.784;2023-01-10T10:22:33;96541.28;;;4.73
73894;BMP280;62699;50.534;12.784;2023-01-10T10:28:11;96543.97;;;4.73
73894;BMP280;62699;50.534;12.784;2023-01-10T10:33:53;96552.84;;;4.70
73894;BMP280;62699;50.534;12.784;2023-01-10T10:38:45;96562.31;;;4.71
73894;BMP280;62699;50.534;12.784;2023-01-10T10:43:46;96574.47;;;4.81
73894;BMP280;62699;50.534;12.784;2023-01-10T10:49:07;96556.06;;;4.92
73894;BMP280;62699;50.534;12.784;2023-01-10T10:54:14;96564.25;;;4.98
73894;BMP280;62699;50.534;12.784;2023-01-10T10:59:17;96574.47;;;4.99
73894;BMP280;62699;50.534;12.784;2023-01-10T11:04:20;96570.03;;;4.96
73894;BMP280;62699;50.534;12.784;2023-01-10T11:09:23;96560.09;;;5.06
73894;BMP280;62699;50.534;12.784;2023-01-10T11:14:54;96551.63;;;5.17
73894;BMP280;62699;50.534;12.784;2023-01-10T11:20:06;96574.47;;;5.18
73894;BMP280;62699;50.534;12.784;2023-01-10T11:25:14;96562.75;;;5.24
73894;BMP280;62699;50.534;12.784;2023-01-10T11:30:27;96562.56;;;5.37
73894;BMP280;62699;50.534;12.784;2023-01-10T11:35:33;96572.91;;;5.53
73894;BMP280;62699;50.534;12.784;2023-01-10T11:40:36;96561.44;;;5.62
73894;BMP280;62699;50.534;12.784;2023-01-10T11:45:38;96576.31;;;5.54
73894;BMP280;62699;50.534;12.784;2023-01-10T11:50:41;96575.56;;;5.53
73894;BMP280;62699;50.534;12.784;2023-01-10T11:55:46;96579.44;;;5.52
73894;BMP280;62699;50.534;12.784;2023-01-10T12:00:48;96585.03;;;5.63
73894;BMP280;62699;50.534;12.784;2023-01-10T12:05:57;96584.72;;;5.70
73894;BMP280;62699;50.534;12.784;2023-01-10T12:16:22;96598.09;;;5.61
73894;BMP280;62699;50.534;12.784;2023-01-10T12:21:30;96606.00;;;5.56
73894;BMP280;62699;50.534;12.784;2023-01-10T12:26:33;96607.53;;;5.38
73894;BMP280;62699;50.534;12.784;2023-01-10T12:31:36;96600.69;;;5.28
73894;BMP280;62699;50.534;12.784;2023-01-10T12:47:46;96614.63;;;5.14
73894;BMP280;62699;50.534;12.784;2023-01-10T12:58:03;96627.09;;;5.17
73894;BMP280;62699;50.534;12.784;2023-01-10T13:03:10;96624.28;;;5.21
73894;BMP280;62699;50.534;12.784;2023-01-10T13:08:13;96632.00;;;5.19
73894;BMP280;62699;50.534;12.784;2023-01-10T13:13:28;96637.03;;;5.17
73894;BMP280;62699;50.534;12.784;2023-01-10T13:18:31;96642.06;;;5.15
73894;BMP280;62699;50.534;12.784;2023-01-10T13:23:32;96639.41;;;5.24
73894;BMP280;62699;50.534;12.784;2023-01-10T13:28:34;96635.56;;;5.25
73894;BMP280;62699;50.534;12.784;2023-01-10T13:33:51;96629.63;;;5.39
73894;BMP280;62699;50.534;12.784;2023-01-10T13:38:56;96624.25;;;5.48
73894;BMP280;62699;50.534;12.784;2023-01-10T13:44:09;96625.09;;;5.63
73894;BMP280;62699;50.534;12.784;2023-01-10T14:04:48;96637.59;;;5.48
73894;BMP280;62699;50.534;12.784;2023-01-10T14:09:50;96648.88;;;5.52
73894;BMP280;62699;50.534;12.784;2023-01-10T14:14:56;96659.25;;;5.41
73894;BMP280;62699;50.534;12.784;2023-01-10T14:25:05;96655.25;;;5.27
73894;BMP280;62699;50.534;12.784;2023-01-10T14:30:15;96651.56;;;5.16
73894;BMP280;62699;50.534;12.784;2023-01-10T14:35:16;96649.34;;;5.14
73894;BMP280;62699;50.534;12.784;2023-01-10T14:45:54;96649.19;;;4.90
73894;BMP280;62699;50.534;12.784;2023-01-10T14:51:19;96648.84;;;4.79
73894;BMP280;62699;50.534;12.784;2023-01-10T14:56:23;96646.03;;;4.74
73894;BMP280;62699;50.534;12.784;2023-01-10T15:01:27;96647.66;;;4.71
73894;BMP280;62699;50.534;12.784;2023-01-10T15:06:28;96662.31;;;4.67
73894;BMP280;62699;50.534;12.784;2023-01-10T15:11:29;96674.41;;;4.58
73894;BMP280;62699;50.534;12.784;2023-01-10T15:16:31;96676.97;;;4.53
73894;BMP280;62699;50.534;12.784;2023-01-10T15:21:31;96679.00;;;4.49
73894;BMP280;62699;50.534;12.784;2023-01-10T15:26:31;96670.09;;;4.43
73894;BMP280;62699;50.534;12.784;2023-01-10T15:31:36;96672.13;;;4.39
73894;BMP280;62699;50.534;12.784;2023-01-10T15:36:42;96668.91;;;4.35
73894;BMP280;62699;50.534;12.784;2023-01-10T15:41:44;96669.03;;;4.31
73894;BMP280;62699;50.534;12.784;2023-01-10T15:46:55;96668.84;;;4.26
73894;BMP280;62699;50.534;12.784;2023-01-10T15:51:56;96664.81;;;4.21
73894;BMP280;62699;50.534;12.784;2023-01-10T15:57:03;96677.09;;;4.18
73894;BMP280;62699;50.534;12.784;2023-01-10T16:02:20;96682.69;;;4.11
73894;BMP280;62699;50.534;12.784;2023-01-10T16:12:36;96690.28;;;3.91
73894;BMP280;62699;50.534;12.784;2023-01-10T16:17:56;96684.03;;;3.85
73894;BMP280;62699;50.534;12.784;2023-01-10T16:22:57;96671.53;;;3.73
73894;BMP280;62699;50.534;12.784;2023-01-10T16:27:57;96675.41;;;3.59
73894;BMP280;62699;50.534;12.784;2023-01-10T16:33:09;96666.50;;;3.53
73894;BMP280;62699;50.534;12.784;2023-01-10T16:38:10;96667.00;;;3.39
73894;BMP280;62699;50.534;12.784;2023-01-10T16:43:11;96669.19;;;3.19
73894;BMP280;62699;50.534;12.784;2023-01-10T16:48:19;96679.03;;;2.96
73894;BMP280;62699;50.534;12.784;2023-01-10T16:53:20;96676.09;;;2.69
73894;BMP280;62699;50.534;12.784;2023-01-10T16:58:20;96670.25;;;2.49
73894;BMP280;62699;50.534;12.784;2023-01-10T17:03:22;96678.88;;;2.28
73894;BMP280;62699;50.534;12.784;2023-01-10T17:08:23;96676.50;;;2.17
73894;BMP280;62699;50.534;12.784;2023-01-10T17:13:26;96679.59;;;2.03
73894;BMP280;62699;50.534;12.784;2023-01-10T17:18:28;96676.97;;;1.86
73894;BMP280;62699;50.534;12.784;2023-01-10T17:23:28;96675.03;;;1.74
73894;BMP280;62699;50.534;12.784;2023-01-10T17:28:30;96673.72;;;1.66
73894;BMP280;62699;50.534;12.784;2023-01-10T17:33:30;96674.88;;;1.53
73894;BMP280;62699;50.534;12.784;2023-01-10T17:38:31;96680.59;;;1.51
73894;BMP280;62699;50.534;12.784;2023-01-10T17:43:31;96677.81;;;1.55
73894;BMP280;62699;50.534;12.784;2023-01-10T17:48:32;96679.16;;;1.63
73894;BMP280;62699;50.534;12.784;2023-01-10T17:53:33;96675.56;;;1.69
73894;BMP280;62699;50.534;12.784;2023-01-10T17:58:34;96672.72;;;1.76
73894;BMP280;62699;50.534;12.784;2023-01-10T18:03:34;96665.09;;;1.78
73894;BMP280;62699;50.534;12.784;2023-01-10T18:08:35;96660.94;;;1.77
73894;BMP280;62699;50.534;12.784;2023-01-10T18:13:35;96673.13;;;1.75
73894;BMP280;62699;50.534;12.784;2023-01-10T18:18:35;96684.50;;;1.75
73894;BMP280;62699;50.534;12.784;2023-01-10T18:23:35;96675.31;;;1.64
73894;BMP280;62699;50.534;12.784;2023-01-10T18:28:38;96659.84;;;1.46
73894;BMP280;62699;50.534;12.784;2023-01-10T18:33:39;96643.25;;;1.29
73894;BMP280;62699;50.534;12.784;2023-01-10T18:38:39;96636.41;;;1.16
73894;BMP280;62699;50.534;12.784;2023-01-10T18:43:40;96642.06;;;1.01
73894;BMP280;62699;50.534;12.784;2023-01-10T18:48:40;96643.06;;;0.91
73894;BMP280;62699;50.534;12.784;2023-01-10T18:53:41;96639.06;;;0.99
73894;BMP280;62699;50.534;12.784;2023-01-10T18:58:41;96633.25;;;1.04
73894;BMP280;62699;50.534;12.784;2023-01-10T19:03:42;96630.78;;;0.97
73894;BMP280;62699;50.534;12.784;2023-01-10T19:08:44;96616.69;;;0.84
73894;BMP280;62699;50.534;12.784;2023-01-10T19:13:46;96616.88;;;0.77
73894;BMP280;62699;50.534;12.784;2023-01-10T19:18:51;96608.44;;;0.66
73894;BMP280;62699;50.534;12.784;2023-01-10T19:23:53;96614.38;;;0.54
73894;BMP280;62699;50.534;12.784;2023-01-10T19:28:57;96602.28;;;0.36
73894;BMP280;62699;50.534;12.784;2023-01-10T19:33:58;96591.88;;;0.29
73894;BMP280;62699;50.534;12.784;2023-01-10T19:38:59;96591.03;;;0.16
73894;BMP280;62699;50.534;12.784;2023-01-10T19:44:02;96586.22;;;0.11
73894;BMP280;62699;50.534;12.784;2023-01-10T19:49:04;96584.53;;;0.01
73894;BMP280;62699;50.534;12.784;2023-01-10T19:54:07;96571.47;;;-0.06
73894;BMP280;62699;50.534;12.784;2023-01-10T19:59:07;96568.22;;;-0.14
73894;BMP280;62699;50.534;12.784;2023-01-10T20:04:08;96575.00;;;-0.13
73894;BMP280;62699;50.534;12.784;2023-01-10T20:09:11;96568.28;;;-0.17
73894;BMP280;62699;50.534;12.784;2023-01-10T20:14:17;96575.81;;;-0.16
73894;BMP280;62699;50.534;12.784;2023-01-10T20:19:18;96564.19;;;-0.02
73894;BMP280;62699;50.534;12.784;2023-01-10T20:24:20;96558.22;;;-0.06
73894;BMP280;62699;50.534;12.784;2023-01-10T20:29:20;96541.38;;;0.04
73894;BMP280;62699;50.534;12.784;2023-01-10T20:34:20;96545.84;;;0.07
73894;BMP280;62699;50.534;12.784;2023-01-10T20:39:23;96551.03;;;0.11
73894;BMP280;62699;50.534;12.784;2023-01-10T20:44:25;96543.22;;;0.23
73894;BMP280;62699;50.534;12.784;2023-01-10T20:49:26;96535.53;;;0.29
73894;BMP280;62699;50.534;12.784;2023-01-10T20:54:26;96529.28;;;0.35
73894;BMP280;62699;50.534;12.784;2023-01-10T20:59:26;96535.34;;;0.36
73894;BMP280;62699;50.534;12.784;2023-01-10T21:04:28;96524.53;;;0.30
73894;BMP280;62699;50.534;12.784;2023-01-10T21:09:29;96509.38;;;0.31
73894;BMP280;62699;50.534;12.784;2023-01-10T21:14:29;96508.31;;;0.28
73894;BMP280;62699;50.534;12.784;2023-01-10T21:19:29;96512.13;;;0.27
73894;BMP280;62699;50.534;12.784;2023-01-10T21:24:29;96500.03;;;0.26
73894;BMP280;62699;50.534;12.784;2023-01-10T21:29:30;96503.56;;;0.36
73894;BMP280;62699;50.534;12.784;2023-01-10T21:34:30;96501.31;;;0.34
73894;BMP280;62699;50.534;12.784;2023-01-10T21:39:30;96508.34;;;0.41
73894;BMP280;62699;50.534;12.784;2023-01-10T21:44:31;96509.41;;;0.44
73894;BMP280;62699;50.534;12.784;2023-01-10T21:49:31;96513.38;;;0.68
73894;BMP280;62699;50.534;12.784;2023-01-10T21:54:31;96504.44;;;0.78
73894;BMP280;62699;50.534;12.784;2023-01-10T21:59:32;96495.72;;;0.78
73894;BMP280;62699;50.534;12.784;2023-01-10T22:04:33;96489.44;;;1.29
73894;BMP280;62699;50.534;12.784;2023-01-10T22:09:33;96480.50;;;1.36
73894;BMP280;62699;50.534;12.784;2023-01-10T22:14:35;96466.09;;;1.37
73894;BMP280;62699;50.534;12.784;2023-01-10T22:19:35;96466.75;;;1.28
73894;BMP280;62699;50.534;12.784;2023-01-10T22:24:36;96446.25;;;1.41
73894;BMP280;62699;50.534;12.784;2023-01-10T22:29:36;96455.28;;;1.69
73894;BMP280;62699;50.534;12.784;2023-01-10T22:34:36;96438.41;;;1.76
73894;BMP280;62699;50.534;12.784;2023-01-10T22:39:37;96436.72;;;1.69
73894;BMP280;62699;50.534;12.784;2023-01-10T22:44:37;96430.84;;;2.00
73894;BMP280;62699;50.534;12.784;2023-01-10T22:49:37;96432.91;;;1.83
73894;BMP280;62699;50.534;12.784;2023-01-10T22:54:37;96431.72;;;1.71
73894;BMP280;62699;50.534;12.784;2023-01-10T22:59:38;96414.94;;;1.74
73894;BMP280;62699;50.534;12.784;2023-01-10T23:04:38;96413.28;;;2.15
73894;BMP280;62699;50.534;12.784;2023-01-10T23:09:38;96389.22;;;2.53
73894;BMP280;62699;50.534;12.784;2023-01-10T23:14:38;96389.66;;;2.51
73894;BMP280;62699;50.534;12.784;2023-01-10T23:19:39;96383.25;;;2.61
73894;BMP280;62699;50.534;12.784;2023-01-10T23:24:39;96380.81;;;2.54
73894;BMP280;62699;50.534;12.784;2023-01-10T23:29:39;96379.88;;;2.70
73894;BMP280;62699;50.534;12.784;2023-01-10T23:34:39;96364.34;;;2.69
73894;BMP280;62699;50.534;12.784;2023-01-10T23:39:50;96347.72;;;2.77
73894;BMP280;62699;50.534;12.784;2023-01-10T23:44:51;96349.25;;;2.87
73894;BMP280;62699;50.534;12.784;2023-01-10T23:49:51;96334.34;;;2.90
73894;BMP280;62699;50.534;12.784;2023-01-10T23:54:51;96321.50;;;2.88
73894;BMP280;62699;50.534;12.784;2023-01-10T23:59:52;96320.75;;;2.88
